sensor_id;sensor_type;location;lat;lon;timestamp;temperature;humidity
16134;DHT22;8172;45.018;5.972;2023-02-03T00:03:20;-0.70;76.20
16134;DHT22;8172;45.018;5.972;2023-02-03T00:08:27;-0.70;76.40
16134;DHT22;8172;45.018;5.972;2023-02-03T00:13:35;-0.70;76.70
16134;DHT22;8172;45.018;5.972;2023-02-03T00:18:42;-0.60;76.70
16134;DHT22;8172;45.018;5.972;2023-02-03T00:23:49;-0.60;76.70
16134;DHT22;8172;45.018;5.972;2023-02-03T00:28:58;-0.60;76.60
16134;DHT22;8172;45.018;5.972;2023-02-03T00:34:05;-0.50;76.60
16134;DHT22;8172;45.018;5.972;2023-02-03T00:39:13;-0.50;76.70
16134;DHT22;8172;45.018;5.972;2023-02-03T00:44:20;-0.50;76.80
16134;DHT22;8172;45.018;5.972;2023-02-03T00:49:28;-0.50;76.80
16134;DHT22;8172;45.018;5.972;2023-02-03T00:54:35;-0.50;76.70
16134;DHT22;8172;45.018;5.972;2023-02-03T00:59:42;-0.50;76.80
16134;DHT22;8172;45.018;5.972;2023-02-03T01:04:49;-0.50;76.80
16134;DHT22;8172;45.018;5.972;2023-02-03T01:09:56;-0.50;76.80
16134;DHT22;8172;45.018;5.972;2023-02-03T01:15:04;-0.50;76.70
16134;DHT22;8172;45.018;5.972;2023-02-03T01:20:11;-0.50;76.80
16134;DHT22;8172;45.018;5.972;2023-02-03T01:25:18;-0.50;76.90
16134;DHT22;8172;45.018;5.972;2023-02-03T01:30:26;-0.50;76.90
16134;DHT22;8172;45.018;5.972;2023-02-03T01:35:34;-0.50;77.00
16134;DHT22;8172;45.018;5.972;2023-02-03T01:40:42;-0.50;77.20
16134;DHT22;8172;45.018;5.972;2023-02-03T01:45:50;-0.50;77.30
16134;DHT22;8172;45.018;5.972;2023-02-03T01:50:59;-0.50;77.20
16134;DHT22;8172;45.018;5.972;2023-02-03T01:56:07;-0.50;77.10
16134;DHT22;8172;45.018;5.972;2023-02-03T02:01:15;-0.50;77.10
16134;DHT22;8172;45.018;5.972;2023-02-03T02:06:25;-0.50;77.10
16134;DHT22;8172;45.018;5.972;2023-02-03T02:11:32;-0.50;77.20
16134;DHT22;8172;45.018;5.972;2023-02-03T02:27:06;-0.60;77.00
16134;DHT22;8172;45.018;5.972;2023-02-03T02:47:38;-0.90;76.60
16134;DHT22;8172;45.018;5.972;2023-02-03T02:52:46;-0.90;76.60
16134;DHT22;8172;45.018;5.972;2023-02-03T02:57:58;-1.00;76.40
16134;DHT22;8172;45.018;5.972;2023-02-03T03:08:16;-1.10;76.50
16134;DHT22;8172;45.018;5.972;2023-02-03T03:13:26;-1.10;76.40
16134;DHT22;8172;45.018;5.972;2023-02-03T03:18:45;-1.10;76.30
16134;DHT22;8172;45.018;5.972;2023-02-03T03:23:49;-1.10;76.20
16134;DHT22;8172;45.018;5.972;2023-02-03T03:29:02;-1.20;76.10
16134;DHT22;8172;45.018;5.972;2023-02-03T03:34:08;-1.20;76.10
16134;DHT22;8172;45.018;5.972;2023-02-03T03:44:28;-1.20;75.90
16134;DHT22;8172;45.018;5.972;2023-02-03T03:49:37;-1.30;75.80
16134;DHT22;8172;45.018;5.972;2023-02-03T03:54:48;-1.30;75.70
16134;DHT22;8172;45.018;5.972;2023-02-03T03:59:55;-1.30;75.70
16134;DHT22;8172;45.018;5.972;2023-02-03T04:05:04;-1.40;75.70
16134;DHT22;8172;45.018;5.972;2023-02-03T04:10:15;-1.40;76.00
16134;DHT22;8172;45.018;5.972;2023-02-03T04:15:21;-1.40;75.90
16134;DHT22;8172;45.018;5.972;2023-02-03T04:20:30;-1.50;76.00
16134;DHT22;8172;45.018;5.972;2023-02-03T04:25:37;-1.50;75.70
16134;DHT22;8172;45.018;5.972;2023-02-03T04:30:44;-1.50;75.70
16134;DHT22;8172;45.018;5.972;2023-02-03T04:35:51;-1.50;75.70
16134;DHT22;8172;45.018;5.972;2023-02-03T04:40:58;-1.50;75.70
16134;DHT22;8172;45.018;5.972;2023-02-03T04:46:05;-1.50;75.80
16134;DHT22;8172;45.018;5.972;2023-02-03T04:51:12;-1.50;75.40
16134;DHT22;8172;45.018;5.972;2023-02-03T04:56:19;-1.60;75.30
16134;DHT22;8172;45.018;5.972;2023-02-03T05:01:29;-1.60;75.40
16134;DHT22;8172;45.018;5.972;2023-02-03T05:06:36;-1.60;75.50
16134;DHT22;8172;45.018;5.972;2023-02-03T05:11:43;-1.70;75.50
16134;DHT22;8172;45.018;5.972;2023-02-03T05:16:50;-1.70;75.40
16134;DHT22;8172;45.018;5.972;2023-02-03T05:21:57;-1.70;75.50
16134;DHT22;8172;45.018;5.972;2023-02-03T05:27:04;-1.70;75.80
16134;DHT22;8172;45.018;5.972;2023-02-03T05:32:11;-1.70;75.70
16134;DHT22;8172;45.018;5.972;2023-02-03T05:37:18;-1.70;75.40
16134;DHT22;8172;45.018;5.972;2023-02-03T05:42:25;-1.70;75.70
16134;DHT22;8172;45.018;5.972;2023-02-03T05:47:32;-1.70;76.00
16134;DHT22;8172;45.018;5.972;2023-02-03T05:52:39;-1.60;76.30
16134;DHT22;8172;45.018;5.972;2023-02-03T05:57:46;-1.60;76.40
16134;DHT22;8172;45.018;5.972;2023-02-03T06:02:55;-1.50;76.50
16134;DHT22;8172;45.018;5.972;2023-02-03T06:08:02;-1.50;76.60
16134;DHT22;8172;45.018;5.972;2023-02-03T06:13:12;-1.40;76.70
16134;DHT22;8172;45.018;5.972;2023-02-03T06:18:19;-1.40;76.70
16134;DHT22;8172;45.018;5.972;2023-02-03T06:23:26;-1.30;76.60
16134;DHT22;8172;45.018;5.972;2023-02-03T06:28:33;-1.30;76.20
16134;DHT22;8172;45.018;5.972;2023-02-03T06:33:40;-1.40;76.00
16134;DHT22;8172;45.018;5.972;2023-02-03T06:38:47;-1.40;76.10
16134;DHT22;8172;45.018;5.972;2023-02-03T06:43:55;-1.40;76.10
16134;DHT22;8172;45.018;5.972;2023-02-03T06:49:02;-1.40;76.10
16134;DHT22;8172;45.018;5.972;2023-02-03T06:54:10;-1.50;76.00
16134;DHT22;8172;45.018;5.972;2023-02-03T06:59:17;-1.50;75.90
16134;DHT22;8172;45.018;5.972;2023-02-03T07:04:24;-1.50;76.00
16134;DHT22;8172;45.018;5.972;2023-02-03T07:09:33;-1.60;75.80
16134;DHT22;8172;45.018;5.972;2023-02-03T07:14:40;-1.60;75.70
16134;DHT22;8172;45.018;5.972;2023-02-03T07:19:47;-1.60;75.90
16134;DHT22;8172;45.018;5.972;2023-02-03T07:24:54;-1.60;75.90
16134;DHT22;8172;45.018;5.972;2023-02-03T07:30:01;-1.70;75.80
16134;DHT22;8172;45.018;5.972;2023-02-03T07:35:08;-1.70;75.90
16134;DHT22;8172;45.018;5.972;2023-02-03T07:40:15;-1.70;75.70
16134;DHT22;8172;45.018;5.972;2023-02-03T07:45:22;-1.80;75.50
16134;DHT22;8172;45.018;5.972;2023-02-03T07:50:29;-1.80;75.40
16134;DHT22;8172;45.018;5.972;2023-02-03T07:55:38;-1.80;75.20
16134;DHT22;8172;45.018;5.972;2023-02-03T08:00:45;-1.80;75.10
16134;DHT22;8172;45.018;5.972;2023-02-03T08:05:52;-1.90;75.10
16134;DHT22;8172;45.018;5.972;2023-02-03T08:10:59;-1.90;75.20
16134;DHT22;8172;45.018;5.972;2023-02-03T08:16:06;-1.90;75.60
16134;DHT22;8172;45.018;5.972;2023-02-03T08:21:14;-1.90;75.80
16134;DHT22;8172;45.018;5.972;2023-02-03T08:26:21;-1.80;75.80
16134;DHT22;8172;45.018;5.972;2023-02-03T08:31:28;-1.80;75.60
16134;DHT22;8172;45.018;5.972;2023-02-03T08:36:35;-1.70;75.60
16134;DHT22;8172;45.018;5.972;2023-02-03T08:41:44;-1.70;75.40
16134;DHT22;8172;45.018;5.972;2023-02-03T08:46:52;-1.70;75.40
16134;DHT22;8172;45.018;5.972;2023-02-03T08:51:59;-1.60;75.40
16134;DHT22;8172;45.018;5.972;2023-02-03T08:57:07;-1.60;75.40
16134;DHT22;8172;45.018;5.972;2023-02-03T09:02:16;-1.50;75.70
16134;DHT22;8172;45.018;5.972;2023-02-03T09:07:23;-1.50;75.80
16134;DHT22;8172;45.018;5.972;2023-02-03T09:12:30;-1.40;75.80
16134;DHT22;8172;45.018;5.972;2023-02-03T09:17:37;-1.30;75.80
16134;DHT22;8172;45.018;5.972;2023-02-03T09:22:44;-1.20;75.90
16134;DHT22;8172;45.018;5.972;2023-02-03T09:27:51;-1.10;76.00
16134;DHT22;8172;45.018;5.972;2023-02-03T09:32:59;-1.00;75.90
16134;DHT22;8172;45.018;5.972;2023-02-03T09:38:06;-0.80;75.90
16134;DHT22;8172;45.018;5.972;2023-02-03T09:48:27;-0.60;76.10
16134;DHT22;8172;45.018;5.972;2023-02-03T09:53:41;-0.40;76.20
16134;DHT22;8172;45.018;5.972;2023-02-03T09:58:49;-0.30;76.20
16134;DHT22;8172;45.018;5.972;2023-02-03T10:09:13;0.10;76.00
16134;DHT22;8172;45.018;5.972;2023-02-03T10:19:36;0.50;75.70
16134;DHT22;8172;45.018;5.972;2023-02-03T10:24:41;0.60;75.60
16134;DHT22;8172;45.018;5.972;2023-02-03T10:34:56;0.90;75.50
16134;DHT22;8172;45.018;5.972;2023-02-03T10:40:04;0.90;75.50
16134;DHT22;8172;45.018;5.972;2023-02-03T10:45:11;0.90;75.50
16134;DHT22;8172;45.018;5.972;2023-02-03T10:50:23;0.90;75.60
16134;DHT22;8172;45.018;5.972;2023-02-03T10:55:31;1.00;75.60
16134;DHT22;8172;45.018;5.972;2023-02-03T11:00:38;1.00;75.70
16134;DHT22;8172;45.018;5.972;2023-02-03T11:05:45;1.10;75.70
16134;DHT22;8172;45.018;5.972;2023-02-03T11:10:56;1.20;76.00
16134;DHT22;8172;45.018;5.972;2023-02-03T11:16:05;1.40;76.00
16134;DHT22;8172;45.018;5.972;2023-02-03T11:21:15;1.60;75.50
16134;DHT22;8172;45.018;5.972;2023-02-03T11:26:25;1.80;74.40
16134;DHT22;8172;45.018;5.972;2023-02-03T11:31:33;2.00;74.70
16134;DHT22;8172;45.018;5.972;2023-02-03T11:36:41;2.20;74.50
16134;DHT22;8172;45.018;5.972;2023-02-03T11:41:48;2.30;74.20
16134;DHT22;8172;45.018;5.972;2023-02-03T11:46:59;2.40;73.80
16134;DHT22;8172;45.018;5.972;2023-02-03T11:57:24;2.50;73.00
16134;DHT22;8172;45.018;5.972;2023-02-03T12:07:36;2.60;73.80
16134;DHT22;8172;45.018;5.972;2023-02-03T12:12:47;2.70;73.40
16134;DHT22;8172;45.018;5.972;2023-02-03T12:17:57;2.80;73.40
16134;DHT22;8172;45.018;5.972;2023-02-03T12:33:28;3.10;73.40
16134;DHT22;8172;45.018;5.972;2023-02-03T12:38:37;3.20;73.30
16134;DHT22;8172;45.018;5.972;2023-02-03T12:43:46;3.30;73.30
16134;DHT22;8172;45.018;5.972;2023-02-03T12:59:16;3.50;72.70
16134;DHT22;8172;45.018;5.972;2023-02-03T13:09:38;3.70;72.50
16134;DHT22;8172;45.018;5.972;2023-02-03T13:19:54;3.70;72.10
16134;DHT22;8172;45.018;5.972;2023-02-03T13:25:05;3.80;72.00
16134;DHT22;8172;45.018;5.972;2023-02-03T13:45:46;4.00;72.00
16134;DHT22;8172;45.018;5.972;2023-02-03T13:56:06;4.10;71.90
16134;DHT22;8172;45.018;5.972;2023-02-03T14:16:43;4.20;71.40
16134;DHT22;8172;45.018;5.972;2023-02-03T14:27:02;4.30;70.80
16134;DHT22;8172;45.018;5.972;2023-02-03T14:32:12;4.30;70.50
16134;DHT22;8172;45.018;5.972;2023-02-03T14:37:23;4.30;69.90
16134;DHT22;8172;45.018;5.972;2023-02-03T14:58:06;3.20;70.30
16134;DHT22;8172;45.018;5.972;2023-02-03T15:03:16;3.00;70.40
16134;DHT22;8172;45.018;5.972;2023-02-03T15:08:28;2.80;70.50
16134;DHT22;8172;45.018;5.972;2023-02-03T15:13:36;2.60;70.80
16134;DHT22;8172;45.018;5.972;2023-02-03T15:18:44;2.50;70.90
16134;DHT22;8172;45.018;5.972;2023-02-03T15:23:52;2.40;71.00
16134;DHT22;8172;45.018;5.972;2023-02-03T15:29:02;2.30;71.10
16134;DHT22;8172;45.018;5.972;2023-02-03T15:39:32;2.10;71.40
16134;DHT22;8172;45.018;5.972;2023-02-03T15:44:38;2.00;71.60
16134;DHT22;8172;45.018;5.972;2023-02-03T15:49:43;2.00;71.60
16134;DHT22;8172;45.018;5.972;2023-02-03T15:54:56;1.90;71.50
16134;DHT22;8172;45.018;5.972;2023-02-03T16:10:26;1.60;71.50
16134;DHT22;8172;45.018;5.972;2023-02-03T16:15:34;1.60;71.60
16134;DHT22;8172;45.018;5.972;2023-02-03T16:31:12;1.40;72.00
16134;DHT22;8172;45.018;5.972;2023-02-03T16:36:14;1.40;72.10
16134;DHT22;8172;45.018;5.972;2023-02-03T16:41:22;1.30;72.20
16134;DHT22;8172;45.018;5.972;2023-02-03T16:46:32;1.30;72.20
16134;DHT22;8172;45.018;5.972;2023-02-03T16:51:41;1.30;72.00
16134;DHT22;8172;45.018;5.972;2023-02-03T16:56:48;1.20;72.00
16134;DHT22;8172;45.018;5.972;2023-02-03T17:01:57;1.20;72.10
16134;DHT22;8172;45.018;5.972;2023-02-03T17:07:04;1.20;72.00
16134;DHT22;8172;45.018;5.972;2023-02-03T17:12:12;1.10;71.90
16134;DHT22;8172;45.018;5.972;2023-02-03T17:17:20;1.00;71.90
16134;DHT22;8172;45.018;5.972;2023-02-03T17:22:27;0.90;72.10
16134;DHT22;8172;45.018;5.972;2023-02-03T17:27:35;0.90;72.00
16134;DHT22;8172;45.018;5.972;2023-02-03T17:32:43;0.80;72.10
16134;DHT22;8172;45.018;5.972;2023-02-03T17:37:50;0.80;72.30
16134;DHT22;8172;45.018;5.972;2023-02-03T17:42:57;0.70;72.50
16134;DHT22;8172;45.018;5.972;2023-02-03T17:48:23;0.70;72.60
16134;DHT22;8172;45.018;5.972;2023-02-03T17:53:40;0.70;72.70
16134;DHT22;8172;45.018;5.972;2023-02-03T17:58:48;0.70;72.70
16134;DHT22;8172;45.018;5.972;2023-02-03T18:03:57;0.70;72.60
16134;DHT22;8172;45.018;5.972;2023-02-03T18:09:07;0.60;72.80
16134;DHT22;8172;45.018;5.972;2023-02-03T18:14:15;0.60;72.90
16134;DHT22;8172;45.018;5.972;2023-02-03T18:19:22;0.60;73.00
16134;DHT22;8172;45.018;5.972;2023-02-03T18:24:30;0.60;73.20
16134;DHT22;8172;45.018;5.972;2023-02-03T18:29:37;0.60;73.20
16134;DHT22;8172;45.018;5.972;2023-02-03T18:34:45;0.60;73.00
16134;DHT22;8172;45.018;5.972;2023-02-03T18:39:52;0.60;72.90
16134;DHT22;8172;45.018;5.972;2023-02-03T18:44:59;0.50;73.10
16134;DHT22;8172;45.018;5.972;2023-02-03T18:50:08;0.50;73.20
16134;DHT22;8172;45.018;5.972;2023-02-03T18:55:15;0.40;73.30
16134;DHT22;8172;45.018;5.972;2023-02-03T19:00:23;0.40;73.50
16134;DHT22;8172;45.018;5.972;2023-02-03T19:05:32;0.40;73.60
16134;DHT22;8172;45.018;5.972;2023-02-03T19:10:39;0.40;73.70
16134;DHT22;8172;45.018;5.972;2023-02-03T19:15:47;0.40;73.70
16134;DHT22;8172;45.018;5.972;2023-02-03T19:20:55;0.30;73.80
16134;DHT22;8172;45.018;5.972;2023-02-03T19:26:02;0.30;74.00
16134;DHT22;8172;45.018;5.972;2023-02-03T19:31:12;0.30;74.00
16134;DHT22;8172;45.018;5.972;2023-02-03T19:36:20;0.30;74.10
16134;DHT22;8172;45.018;5.972;2023-02-03T19:41:27;0.20;74.00
16134;DHT22;8172;45.018;5.972;2023-02-03T19:46:36;0.20;74.10
16134;DHT22;8172;45.018;5.972;2023-02-03T19:51:43;0.20;74.20
16134;DHT22;8172;45.018;5.972;2023-02-03T19:56:51;0.20;74.20
16134;DHT22;8172;45.018;5.972;2023-02-03T20:02:00;0.20;74.40
16134;DHT22;8172;45.018;5.972;2023-02-03T20:07:10;0.10;74.50
16134;DHT22;8172;45.018;5.972;2023-02-03T20:12:18;0.10;74.60
16134;DHT22;8172;45.018;5.972;2023-02-03T20:17:25;0.10;74.80
16134;DHT22;8172;45.018;5.972;2023-02-03T20:22:32;0.10;74.90
16134;DHT22;8172;45.018;5.972;2023-02-03T20:27:39;0.10;74.90
16134;DHT22;8172;45.018;5.972;2023-02-03T20:32:46;0.10;74.90
16134;DHT22;8172;45.018;5.972;2023-02-03T20:37:54;0.10;74.80
16134;DHT22;8172;45.018;5.972;2023-02-03T20:43:07;0.10;74.80
16134;DHT22;8172;45.018;5.972;2023-02-03T20:48:13;0.10;74.90
16134;DHT22;8172;45.018;5.972;2023-02-03T20:53:22;0.10;74.90
16134;DHT22;8172;45.018;5.972;2023-02-03T20:58:32;0.10;75.10
16134;DHT22;8172;45.018;5.972;2023-02-03T21:03:40;0.10;75.10
16134;DHT22;8172;45.018;5.972;2023-02-03T21:08:49;0.10;75.10
16134;DHT22;8172;45.018;5.972;2023-02-03T21:13:57;0.00;74.90
16134;DHT22;8172;45.018;5.972;2023-02-03T21:19:06;0.00;74.90
16134;DHT22;8172;45.018;5.972;2023-02-03T21:29:25;-0.10;74.80
16134;DHT22;8172;45.018;5.972;2023-02-03T21:34:34;-0.10;75.00
16134;DHT22;8172;45.018;5.972;2023-02-03T21:39:42;-0.10;75.20
16134;DHT22;8172;45.018;5.972;2023-02-03T21:44:51;-0.10;75.30
16134;DHT22;8172;45.018;5.972;2023-02-03T21:49:59;-0.10;75.40
16134;DHT22;8172;45.018;5.972;2023-02-03T21:55:09;-0.10;75.20
16134;DHT22;8172;45.018;5.972;2023-02-03T22:05:26;-0.20;75.20
16134;DHT22;8172;45.018;5.972;2023-02-03T22:10:33;-0.20;75.20
16134;DHT22;8172;45.018;5.972;2023-02-03T22:15:41;-0.30;75.00
16134;DHT22;8172;45.018;5.972;2023-02-03T22:20:49;-0.30;75.00
16134;DHT22;8172;45.018;5.972;2023-02-03T22:25:56;-0.40;75.20
16134;DHT22;8172;45.018;5.972;2023-02-03T22:31:04;-0.40;75.20
16134;DHT22;8172;45.018;5.972;2023-02-03T22:36:12;-0.40;75.10
16134;DHT22;8172;45.018;5.972;2023-02-03T22:41:20;-0.50;75.30
16134;DHT22;8172;45.018;5.972;2023-02-03T22:46:27;-0.40;75.60
16134;DHT22;8172;45.018;5.972;2023-02-03T22:51:34;-0.40;75.80
16134;DHT22;8172;45.018;5.972;2023-02-03T22:56:41;-0.40;75.60
16134;DHT22;8172;45.018;5.972;2023-02-03T23:01:48;-0.40;75.70
16134;DHT22;8172;45.018;5.972;2023-02-03T23:06:55;-0.40;75.70
16134;DHT22;8172;45.018;5.972;2023-02-03T23:12:02;-0.40;75.70
16134;DHT22;8172;45.018;5.972;2023-02-03T23:17:09;-0.40;75.80
16134;DHT22;8172;45.018;5.972;2023-02-03T23:22:16;-0.40;75.60
16134;DHT22;8172;45.018;5.972;2023-02-03T23:27:24;-0.50;75.80
16134;DHT22;8172;45.018;5.972;2023-02-03T23:32:31;-0.50;75.80
16134;DHT22;8172;45.018;5.972;2023-02-03T23:37:38;-0.50;75.90
16134;DHT22;8172;45.018;5.972;2023-02-03T23:42:45;-0.50;75.90
16134;DHT22;8172;45.018;5.972;2023-02-03T23:47:52;-0.50;76.00
16134;DHT22;8172;45.018;5.972;2023-02-03T23:52:59;-0.50;76.20
16134;DHT22;8172;45.018;5.972;2023-02-03T23:58:06;-0.40;76.40
